createdAt,value
2018-09-15T00:01:34.304Z,14.00
2018-09-15T00:04:02.493Z,14.00
2018-09-15T00:06:30.758Z,13.90
2018-09-15T00:08:58.953Z,13.90
2018-09-15T00:11:27.122Z,13.80
2018-09-15T00:13:55.329Z,13.80
2018-09-15T00:16:25.725Z,13.70
2018-09-15T00:18:53.914Z,13.70
2018-09-15T00:21:22.805Z,13.60
2018-09-15T00:23:51.059Z,13.60
2018-09-15T00:26:19.417Z,13.60
2018-09-15T00:28:47.678Z,13.50
2018-09-15T00:31:17.130Z,13.50
2018-09-15T00:33:45.662Z,13.50
2018-09-15T00:36:13.870Z,13.50
2018-09-15T00:38:42.288Z,13.40
2018-09-15T00:41:10.530Z,13.40
2018-09-15T00:43:38.725Z,13.40
2018-09-15T00:46:06.901Z,13.30
2018-09-15T00:48:35.136Z,13.20
2018-09-15T00:51:03.332Z,13.20
2018-09-15T00:53:31.529Z,13.10
2018-09-15T00:55:59.696Z,13.10
2018-09-15T00:58:28.170Z,13.00
2018-09-15T01:00:56.389Z,13.00
2018-09-15T01:03:24.696Z,12.90
2018-09-15T01:05:52.895Z,12.90
2018-09-15T01:08:21.132Z,12.90
2018-09-15T01:10:49.313Z,12.90
2018-09-15T01:13:17.494Z,12.80
2018-09-15T01:15:45.655Z,12.80
2018-09-15T01:18:14.080Z,12.80
2018-09-15T01:20:42.243Z,12.70
2018-09-15T01:23:10.561Z,12.70
2018-09-15T01:25:38.866Z,12.60
2018-09-15T01:28:07.038Z,12.60
2018-09-15T01:30:35.232Z,12.60
2018-09-15T01:33:03.424Z,12.60
2018-09-15T01:35:31.612Z,12.60
2018-09-15T01:37:59.824Z,12.50
2018-09-15T01:40:28.011Z,12.50
2018-09-15T01:42:56.184Z,12.50
2018-09-15T01:45:24.372Z,12.40
2018-09-15T01:47:52.540Z,12.40
2018-09-15T01:50:20.745Z,12.40
2018-09-15T01:52:49.494Z,12.40
2018-09-15T01:55:17.740Z,12.40
2018-09-15T01:57:45.919Z,12.40
2018-09-15T02:00:14.119Z,12.40
2018-09-15T02:02:42.370Z,12.30
2018-09-15T02:05:10.845Z,12.30
2018-09-15T02:07:39.237Z,12.30
2018-09-15T02:10:07.566Z,12.20
2018-09-15T02:12:35.917Z,12.20
2018-09-15T02:15:04.321Z,12.20
2018-09-15T02:17:32.489Z,12.10
2018-09-15T02:20:00.788Z,12.10
2018-09-15T02:22:28.975Z,12.10
2018-09-15T02:24:57.191Z,12.10
2018-09-15T02:27:25.377Z,12.10
2018-09-15T02:29:53.552Z,12.00
2018-09-15T02:32:21.732Z,12.00
2018-09-15T02:34:49.943Z,12.00
2018-09-15T02:37:18.499Z,12.00
2018-09-15T02:39:46.741Z,11.90
2018-09-15T02:42:15.004Z,11.90
2018-09-15T02:44:43.280Z,11.90
2018-09-15T02:47:12.414Z,11.90
2018-09-15T02:49:40.970Z,11.80
2018-09-15T02:52:10.577Z,11.80
2018-09-15T02:54:38.826Z,11.80
2018-09-15T02:57:06.977Z,11.80
2018-09-15T02:59:35.140Z,11.80
2018-09-15T03:02:03.884Z,11.80
2018-09-15T03:04:32.141Z,11.80
2018-09-15T03:07:01.431Z,11.80
2018-09-15T03:09:29.641Z,11.80
2018-09-15T03:11:57.839Z,11.80
2018-09-15T03:14:26.005Z,11.80
2018-09-15T03:16:54.418Z,11.80
2018-09-15T03:19:23.224Z,11.80
2018-09-15T03:21:51.724Z,11.80
2018-09-15T03:24:19.984Z,11.90
2018-09-15T03:26:48.357Z,11.90
2018-09-15T03:29:16.617Z,11.90
2018-09-15T03:31:44.823Z,11.90
2018-09-15T03:34:13.516Z,11.90
2018-09-15T03:36:41.773Z,11.90
2018-09-15T03:39:11.365Z,11.90
2018-09-15T03:41:39.774Z,11.90
2018-09-15T03:44:08.032Z,12.00
2018-09-15T03:46:36.329Z,11.90
2018-09-15T03:49:05.473Z,11.90
2018-09-15T03:51:34.596Z,11.90
2018-09-15T03:54:02.856Z,11.90
2018-09-15T03:59:24.825Z,11.90
2018-09-15T04:01:53.119Z,11.80
2018-09-15T04:04:21.305Z,11.80
2018-09-15T04:06:49.527Z,11.90
2018-09-15T04:09:18.299Z,11.90
2018-09-15T04:11:48.454Z,11.90
2018-09-15T04:14:19.853Z,11.90
2018-09-15T04:16:48.179Z,11.90
2018-09-15T04:19:17.948Z,11.90
2018-09-15T04:21:46.164Z,11.90
2018-09-15T04:24:15.683Z,11.90
2018-09-15T04:26:44.053Z,11.90
2018-09-15T04:29:15.671Z,11.90
2018-09-15T04:31:44.092Z,11.90
2018-09-15T04:34:12.960Z,11.90
2018-09-15T04:36:42.665Z,11.90
2018-09-15T04:39:12.136Z,11.90
2018-09-15T04:41:40.863Z,11.90
2018-09-15T04:44:09.248Z,11.80
2018-09-15T04:46:37.448Z,11.80
2018-09-15T04:49:05.859Z,11.80
2018-09-15T04:51:36.004Z,11.80
2018-09-15T04:54:04.208Z,11.80
2018-09-15T04:56:32.439Z,11.80
2018-09-15T04:59:00.764Z,11.80
2018-09-15T05:01:28.963Z,11.80
2018-09-15T05:03:58.024Z,11.80
2018-09-15T05:06:26.844Z,11.70
2018-09-15T05:08:56.001Z,11.70
2018-09-15T05:11:24.916Z,11.70
2018-09-15T05:13:53.948Z,11.70
2018-09-15T05:16:22.136Z,11.70
2018-09-15T05:18:50.542Z,11.70
2018-09-15T05:21:18.805Z,11.70
2018-09-15T05:23:47.008Z,11.70
2018-09-15T05:26:15.248Z,11.70
2018-09-15T05:28:43.440Z,11.70
2018-09-15T05:31:11.717Z,11.70
2018-09-15T05:33:40.082Z,11.70
2018-09-15T05:36:08.261Z,11.70
2018-09-15T05:38:36.466Z,11.70
2018-09-15T05:41:04.732Z,11.70
2018-09-15T05:43:33.280Z,11.80
2018-09-15T05:46:01.531Z,11.80
2018-09-15T05:48:29.876Z,11.80
2018-09-15T05:50:58.300Z,11.80
2018-09-15T05:53:27.377Z,11.90
2018-09-15T05:55:56.467Z,11.90
2018-09-15T05:58:25.264Z,12.00
2018-09-15T06:00:54.036Z,12.00
2018-09-15T06:03:22.256Z,12.10
2018-09-15T06:05:50.508Z,12.10
2018-09-15T06:08:18.731Z,12.20
2018-09-15T06:10:46.906Z,12.20
2018-09-15T06:13:15.320Z,12.20
2018-09-15T06:15:43.502Z,12.20
2018-09-15T06:18:11.697Z,12.20
2018-09-15T06:20:39.961Z,12.20
2018-09-15T06:23:08.352Z,12.20
2018-09-15T06:25:36.648Z,12.30
2018-09-15T06:28:04.854Z,12.30
2018-09-15T06:30:33.062Z,12.30
2018-09-15T06:33:01.457Z,12.30
2018-09-15T06:35:29.788Z,12.40
2018-09-15T06:37:58.014Z,12.40
2018-09-15T06:40:26.449Z,12.50
2018-09-15T06:42:54.683Z,12.50
2018-09-15T06:45:22.909Z,12.60
2018-09-15T06:47:51.121Z,12.60
2018-09-15T06:50:19.354Z,12.70
2018-09-15T06:52:47.540Z,12.70
2018-09-15T06:55:15.997Z,12.80
2018-09-15T06:57:44.369Z,12.90
2018-09-15T07:00:12.567Z,13.00
2018-09-15T07:02:40.777Z,13.00
2018-09-15T07:05:08.988Z,13.10
2018-09-15T07:07:37.740Z,13.10
2018-09-15T07:10:06.114Z,13.20
2018-09-15T07:12:34.402Z,13.20
2018-09-15T07:15:02.626Z,13.30
2018-09-15T07:17:30.814Z,13.30
2018-09-15T07:19:59.050Z,13.40
2018-09-15T07:22:27.224Z,13.50
2018-09-15T07:24:55.441Z,13.50
2018-09-15T07:27:23.644Z,13.60
2018-09-15T07:29:51.961Z,13.70
2018-09-15T07:32:20.166Z,13.70
2018-09-15T07:34:48.694Z,13.80
2018-09-15T07:37:16.957Z,13.90
2018-09-15T07:39:45.175Z,13.90
2018-09-15T07:42:13.744Z,13.90
2018-09-15T07:44:42.132Z,14.00
2018-09-15T07:47:10.304Z,14.00
2018-09-15T07:49:38.748Z,14.10
2018-09-15T07:52:06.936Z,14.10
2018-09-15T07:54:35.412Z,14.20
2018-09-15T07:57:03.657Z,14.20
2018-09-15T07:59:31.869Z,14.30
2018-09-15T08:02:00.331Z,14.30
2018-09-15T08:04:28.584Z,14.40
2018-09-15T08:06:56.813Z,14.40
2018-09-15T08:09:25.022Z,14.50
2018-09-15T08:11:53.188Z,14.60
2018-09-15T08:14:21.850Z,14.70
2018-09-15T08:16:50.040Z,14.70
2018-09-15T08:19:18.328Z,14.70
2018-09-15T08:21:46.504Z,14.70
2018-09-15T08:24:14.768Z,14.70
2018-09-15T08:26:44.950Z,14.80
2018-09-15T08:29:15.536Z,14.90
2018-09-15T08:31:45.149Z,14.90
2018-09-15T08:34:14.648Z,14.90
2018-09-15T08:36:44.676Z,15.00
2018-09-15T08:39:14.649Z,15.10
2018-09-15T08:41:44.577Z,15.20
2018-09-15T08:44:14.803Z,15.30
2018-09-15T08:46:44.919Z,15.40
2018-09-15T08:49:14.265Z,15.60
2018-09-15T08:51:43.676Z,15.70
2018-09-15T08:54:12.258Z,15.80
2018-09-15T08:56:42.071Z,15.80
2018-09-15T08:59:11.508Z,15.80
2018-09-15T09:01:40.821Z,16.00
2018-09-15T09:04:10.135Z,16.10
2018-09-15T09:06:41.035Z,16.30
2018-09-15T09:09:13.154Z,16.50
2018-09-15T09:11:43.721Z,16.60
2018-09-15T09:14:15.955Z,16.60
2018-09-15T09:16:46.229Z,16.70
2018-09-15T09:19:20.479Z,16.70
2018-09-15T09:21:51.047Z,16.60
2018-09-15T09:24:21.210Z,16.60
2018-09-15T09:26:56.410Z,16.70
2018-09-15T09:29:28.785Z,16.80
2018-09-15T09:31:58.202Z,17.00
2018-09-15T09:34:27.497Z,17.10
2018-09-15T09:36:56.929Z,17.30
2018-09-15T09:39:26.417Z,17.40
2018-09-15T09:41:55.704Z,17.40
2018-09-15T09:44:25.107Z,17.50
2018-09-15T09:46:54.902Z,17.50
2018-09-15T09:49:25.511Z,17.50
2018-09-15T09:51:54.961Z,17.40
2018-09-15T09:54:24.422Z,17.40
2018-09-15T09:56:53.845Z,17.30
2018-09-15T09:59:23.271Z,17.50
2018-09-15T10:01:59.904Z,17.60
2018-09-15T10:04:30.698Z,17.70
2018-09-15T10:07:06.040Z,17.80
2018-09-15T10:09:38.486Z,18.00
2018-09-15T10:12:10.411Z,18.20
2018-09-15T10:14:43.732Z,18.30
2018-09-15T10:17:14.794Z,18.40
2018-09-15T10:19:50.418Z,18.50
2018-09-15T10:22:21.586Z,18.50
2018-09-15T10:24:51.484Z,18.60
2018-09-15T10:27:21.604Z,18.40
2018-09-15T10:29:55.497Z,18.20
2018-09-15T10:32:25.442Z,18.10
2018-09-15T10:35:00.047Z,18.10
2018-09-15T10:37:31.575Z,18.20
2018-09-15T10:40:00.962Z,18.40
2018-09-15T10:42:31.264Z,18.40
2018-09-15T10:45:00.790Z,18.30
2018-09-15T10:47:30.155Z,18.10
2018-09-15T10:49:59.484Z,18.00
2018-09-15T10:52:29.230Z,18.00
2018-09-15T10:54:58.615Z,18.00
2018-09-15T10:57:27.879Z,18.00
2018-09-15T10:59:59.980Z,18.00
2018-09-15T11:02:29.978Z,18.00
2018-09-15T11:05:06.890Z,18.10
2018-09-15T11:10:18.330Z,18.40
2018-09-15T11:12:48.744Z,18.50
2018-09-15T11:15:18.793Z,18.70
2018-09-15T11:17:56.477Z,18.70
2018-09-15T11:20:26.933Z,18.70
2018-09-15T11:22:56.619Z,18.60
2018-09-15T11:25:25.537Z,18.60
2018-09-15T11:27:56.385Z,18.70
2018-09-15T11:30:25.745Z,18.80
2018-09-15T11:32:56.835Z,18.70
2018-09-15T11:35:26.199Z,18.60
2018-09-15T11:37:56.815Z,18.50
2018-09-15T11:40:26.464Z,18.40
2018-09-15T11:42:55.856Z,18.40
2018-09-15T11:45:25.928Z,18.50
2018-09-15T11:47:55.410Z,18.60
2018-09-15T11:50:24.686Z,18.70
2018-09-15T11:52:54.128Z,18.90
2018-09-15T11:55:23.474Z,19.00
2018-09-15T11:57:52.960Z,19.10
2018-09-15T12:00:28.541Z,19.20
2018-09-15T12:03:00.163Z,19.20
2018-09-15T12:05:32.952Z,19.10
2018-09-15T12:08:03.873Z,19.10
2018-09-15T12:10:33.085Z,19.20
2018-09-15T12:13:02.441Z,19.30
2018-09-15T12:15:32.280Z,19.40
2018-09-15T12:18:00.875Z,19.50
2018-09-15T12:20:30.144Z,19.50
2018-09-15T12:22:59.871Z,19.50
2018-09-15T12:25:29.647Z,19.50
2018-09-15T12:27:59.185Z,19.70
2018-09-15T12:30:28.474Z,19.80
2018-09-15T12:32:59.093Z,19.70
2018-09-15T12:35:28.418Z,19.60
2018-09-15T12:37:58.625Z,19.50
2018-09-15T12:40:28.166Z,19.40
2018-09-15T12:42:57.878Z,19.20
2018-09-15T12:45:27.357Z,19.20
2018-09-15T12:47:56.591Z,19.10
2018-09-15T12:50:26.085Z,19.10
2018-09-15T12:52:55.762Z,19.10
2018-09-15T12:55:25.678Z,19.30
2018-09-15T12:57:55.795Z,19.60
2018-09-15T13:00:25.998Z,19.90
2018-09-15T13:02:55.156Z,20.20
2018-09-15T13:05:24.626Z,20.30
2018-09-15T13:07:54.940Z,20.50
2018-09-15T13:10:25.346Z,20.60
2018-09-15T13:12:55.460Z,20.70
2018-09-15T13:15:25.518Z,20.90
2018-09-15T13:17:54.605Z,21.00
2018-09-15T13:20:23.996Z,21.00
2018-09-15T13:22:56.770Z,21.10
2018-09-15T13:25:28.782Z,21.20
2018-09-15T13:28:01.033Z,21.30
2018-09-15T13:30:30.314Z,21.30
2018-09-15T13:32:59.991Z,21.20
2018-09-15T13:35:29.267Z,21.20
2018-09-15T13:37:59.514Z,21.30
2018-09-15T13:40:29.216Z,21.10
2018-09-15T13:43:01.759Z,21.00
2018-09-15T13:45:32.342Z,20.70
2018-09-15T13:48:02.736Z,20.60
2018-09-15T13:50:33.067Z,20.60
2018-09-15T13:53:02.679Z,20.50
2018-09-15T13:55:32.070Z,20.50
2018-09-15T13:58:12.245Z,20.50
2018-09-15T14:00:42.866Z,20.40
2018-09-15T14:03:11.743Z,20.30
2018-09-15T14:05:40.802Z,20.20
2018-09-15T14:08:10.783Z,20.00
2018-09-15T14:10:40.095Z,19.80
2018-09-15T14:13:09.562Z,19.60
2018-09-15T14:15:37.772Z,19.50
2018-09-15T14:18:06.001Z,19.40
2018-09-15T14:20:34.169Z,19.40
2018-09-15T14:23:02.677Z,19.40
2018-09-15T14:25:30.928Z,19.40
2018-09-15T14:27:59.117Z,19.30
2018-09-15T14:30:27.331Z,19.30
2018-09-15T14:32:55.527Z,19.20
2018-09-15T14:35:23.885Z,19.20
2018-09-15T14:37:52.070Z,19.10
2018-09-15T14:40:20.315Z,19.00
2018-09-15T14:42:48.557Z,19.00
2018-09-15T14:45:16.998Z,18.90
2018-09-15T14:47:45.181Z,18.90
2018-09-15T14:50:13.455Z,18.80
2018-09-15T14:52:42.384Z,18.80
2018-09-15T14:55:10.648Z,18.80
2018-09-15T14:57:39.845Z,18.80
2018-09-15T15:00:08.712Z,18.70
2018-09-15T15:02:37.225Z,18.70
2018-09-15T15:05:05.452Z,18.70
2018-09-15T15:07:36.845Z,18.60
2018-09-15T15:10:05.266Z,18.60
2018-09-15T15:12:34.621Z,18.60
2018-09-15T15:15:02.855Z,18.60
2018-09-15T15:17:31.064Z,18.60
2018-09-15T15:19:59.268Z,18.60
2018-09-15T15:22:27.474Z,18.70
2018-09-15T15:24:55.902Z,18.60
2018-09-15T15:27:24.112Z,18.60
2018-09-15T15:29:52.460Z,18.60
2018-09-15T15:32:20.665Z,18.60
2018-09-15T15:34:49.014Z,18.60
2018-09-15T15:37:17.339Z,18.60
2018-09-15T15:39:45.536Z,18.60
2018-09-15T15:42:13.843Z,18.60
2018-09-15T15:44:42.040Z,18.60
2018-09-15T15:47:10.478Z,18.60
2018-09-15T15:49:38.746Z,18.50
2018-09-15T15:52:07.069Z,18.50
2018-09-15T15:54:35.324Z,18.50
2018-09-15T15:57:03.608Z,18.40
2018-09-15T15:59:31.900Z,18.40
2018-09-15T16:02:00.064Z,18.40
2018-09-15T16:04:28.322Z,18.40
2018-09-15T16:06:56.480Z,18.40
2018-09-15T16:09:24.672Z,18.40
2018-09-15T16:11:52.856Z,18.40
2018-09-15T16:14:21.100Z,18.40
2018-09-15T16:16:49.291Z,18.40
2018-09-15T16:19:19.116Z,18.40
2018-09-15T16:21:47.602Z,18.40
2018-09-15T16:24:16.679Z,18.40
2018-09-15T16:26:45.006Z,18.40
2018-09-15T16:29:13.205Z,18.50
2018-09-15T16:31:41.505Z,18.50
2018-09-15T16:34:09.817Z,18.50
2018-09-15T16:36:38.026Z,18.50
2018-09-15T16:39:08.229Z,18.50
2018-09-15T16:41:36.622Z,18.40
2018-09-15T16:44:04.816Z,18.40
2018-09-15T16:46:33.079Z,18.30
2018-09-15T16:49:01.265Z,18.30
2018-09-15T16:51:29.470Z,18.30
2018-09-15T16:53:57.661Z,18.20
2018-09-15T16:56:25.972Z,18.20
2018-09-15T16:58:54.180Z,18.10
2018-09-15T17:01:22.385Z,18.00
2018-09-15T17:03:50.581Z,18.00
2018-09-15T17:06:18.906Z,17.90
2018-09-15T17:08:47.292Z,17.90
2018-09-15T17:11:15.561Z,17.80
2018-09-15T17:13:43.867Z,17.80
2018-09-15T17:16:12.076Z,17.70
2018-09-15T17:18:40.257Z,17.70
2018-09-15T17:21:08.684Z,17.60
2018-09-15T17:23:36.932Z,17.60
2018-09-15T17:26:05.301Z,17.50
2018-09-15T17:28:33.493Z,17.40
2018-09-15T17:31:01.742Z,17.40
2018-09-15T17:33:29.903Z,17.30
2018-09-15T17:35:58.109Z,17.20
2018-09-15T17:38:26.386Z,17.10
2018-09-15T17:40:54.596Z,17.10
2018-09-15T17:43:22.818Z,17.00
2018-09-15T17:45:51.389Z,16.90
2018-09-15T17:48:19.506Z,16.90
2018-09-15T17:50:47.785Z,16.80
2018-09-15T17:53:16.205Z,16.70
2018-09-15T17:55:44.657Z,16.70
2018-09-15T17:58:13.020Z,16.60
2018-09-15T18:00:41.252Z,16.60
2018-09-15T18:03:09.716Z,16.50
2018-09-15T18:05:38.044Z,16.50
2018-09-15T18:08:06.500Z,16.40
2018-09-15T18:10:34.729Z,16.30
2018-09-15T18:13:03.130Z,16.30
2018-09-15T18:15:31.599Z,16.20
2018-09-15T18:17:59.875Z,16.20
2018-09-15T18:20:28.109Z,16.10
2018-09-15T18:22:56.314Z,16.00
2018-09-15T18:25:24.747Z,16.00
2018-09-15T18:27:52.992Z,16.00
2018-09-15T18:30:21.179Z,15.90
2018-09-15T18:32:49.384Z,15.90
2018-09-15T18:35:17.644Z,15.80
2018-09-15T18:37:45.853Z,15.80
2018-09-15T18:40:14.248Z,15.70
2018-09-15T18:42:42.457Z,15.70
2018-09-15T18:45:10.657Z,15.60
2018-09-15T18:47:38.993Z,15.50
2018-09-15T18:50:07.288Z,15.50
2018-09-15T18:52:35.807Z,15.50
2018-09-15T18:55:04.273Z,15.40
2018-09-15T18:57:32.600Z,15.40
2018-09-15T19:00:00.823Z,15.40
2018-09-15T19:02:29.026Z,15.40
2018-09-15T19:05:00.349Z,15.30
2018-09-15T19:07:28.636Z,15.30
2018-09-15T19:09:59.026Z,15.30
2018-09-15T19:12:27.481Z,15.20
2018-09-15T19:14:56.031Z,15.20
2018-09-15T19:17:24.168Z,15.10
2018-09-15T19:19:53.082Z,15.10
2018-09-15T19:22:21.616Z,15.00
2018-09-15T19:24:50.649Z,15.00
2018-09-15T19:27:20.109Z,14.90
2018-09-15T19:29:49.127Z,14.90
2018-09-15T19:32:17.341Z,14.80
2018-09-15T19:34:46.383Z,14.80
2018-09-15T19:37:15.844Z,14.80
2018-09-15T19:39:45.039Z,14.70
2018-09-15T19:42:14.255Z,14.70
2018-09-15T19:44:43.305Z,14.60
2018-09-15T19:47:13.404Z,14.60
2018-09-15T19:49:41.668Z,14.60
2018-09-15T19:52:10.202Z,14.50
2018-09-15T19:54:39.762Z,14.50
2018-09-15T19:57:09.084Z,14.40
2018-09-15T19:59:37.474Z,14.40
2018-09-15T20:02:05.684Z,14.40
2018-09-15T20:04:33.961Z,14.30
2018-09-15T20:07:02.265Z,14.30
2018-09-15T20:09:30.613Z,14.30
2018-09-15T20:11:58.813Z,14.20
2018-09-15T20:14:27.328Z,14.20
2018-09-15T20:16:54.708Z,14.20
2018-09-15T20:19:21.974Z,14.20
2018-09-15T20:24:23.074Z,14.10
2018-09-15T20:26:53.461Z,14.10
2018-09-15T20:29:23.295Z,14.10
2018-09-15T20:31:51.488Z,14.00
2018-09-15T20:34:19.681Z,14.00
2018-09-15T20:36:50.878Z,14.00
2018-09-15T20:39:19.519Z,13.90
2018-09-15T20:41:48.035Z,13.90
2018-09-15T20:44:17.628Z,13.80
2018-09-15T20:46:47.980Z,13.80
2018-09-15T20:49:16.351Z,13.80
2018-09-15T20:51:47.024Z,13.70
2018-09-15T20:54:16.346Z,13.70
2018-09-15T20:56:46.241Z,13.60
2018-09-15T20:59:18.660Z,13.60
2018-09-15T21:01:50.131Z,13.60
2018-09-15T21:04:19.252Z,13.50
2018-09-15T21:06:47.575Z,13.50
2018-09-15T21:09:18.796Z,13.50
2018-09-15T21:11:47.294Z,13.50
2018-09-15T21:14:15.737Z,13.40
2018-09-15T21:16:44.176Z,13.40
2018-09-15T21:19:12.374Z,13.40
2018-09-15T21:21:40.676Z,13.30
2018-09-15T21:24:08.899Z,13.30
2018-09-15T21:26:37.857Z,13.30
2018-09-15T21:29:06.172Z,13.30
2018-09-15T21:31:34.429Z,13.20
2018-09-15T21:34:03.133Z,13.20
2018-09-15T21:36:31.457Z,13.20
2018-09-15T21:38:59.664Z,13.10
2018-09-15T21:41:27.846Z,13.10
2018-09-15T21:43:56.488Z,13.10
2018-09-15T21:46:24.818Z,13.10
2018-09-15T21:48:53.989Z,13.00
2018-09-15T21:51:22.205Z,13.00
2018-09-15T21:53:50.705Z,13.00
2018-09-15T21:56:18.891Z,13.00
2018-09-15T21:58:47.119Z,12.90
2018-09-15T22:01:17.075Z,12.90
2018-09-15T22:03:54.464Z,12.90
2018-09-15T22:06:22.776Z,12.90
2018-09-15T22:08:51.149Z,12.90
2018-09-15T22:11:19.376Z,12.80
2018-09-15T22:13:50.549Z,12.80
2018-09-15T22:16:18.724Z,12.80
2018-09-15T22:18:47.102Z,12.70
2018-09-15T22:21:16.955Z,12.70
2018-09-15T22:23:45.484Z,12.70
2018-09-15T22:26:13.657Z,12.60
2018-09-15T22:28:41.927Z,12.60
2018-09-15T22:31:10.197Z,12.60
2018-09-15T22:33:38.551Z,12.60
2018-09-15T22:36:07.190Z,12.50
2018-09-15T22:38:35.374Z,12.50
2018-09-15T22:41:03.573Z,12.50
2018-09-15T22:43:31.873Z,12.50
2018-09-15T22:46:00.129Z,12.50
2018-09-15T22:48:28.459Z,12.40
2018-09-15T22:50:56.696Z,12.50
2018-09-15T22:53:24.976Z,12.40
2018-09-15T22:55:53.184Z,12.40
2018-09-15T22:58:21.426Z,12.50
2018-09-15T23:00:49.821Z,12.50
2018-09-15T23:03:18.130Z,12.50
2018-09-15T23:05:46.588Z,12.50
2018-09-15T23:08:14.844Z,12.50
2018-09-15T23:10:46.008Z,12.40
2018-09-15T23:13:14.304Z,12.40
2018-09-15T23:15:44.858Z,12.40
2018-09-15T23:18:13.825Z,12.30
2018-09-15T23:20:42.612Z,12.30
2018-09-15T23:23:10.796Z,12.30
2018-09-15T23:25:39.152Z,12.20
2018-09-15T23:28:07.337Z,12.30
2018-09-15T23:30:35.576Z,12.20
2018-09-15T23:33:04.052Z,12.20
2018-09-15T23:35:32.296Z,12.20
2018-09-15T23:38:03.661Z,12.20
2018-09-15T23:40:34.045Z,12.20
2018-09-15T23:43:03.545Z,12.20
2018-09-15T23:45:33.944Z,12.10
2018-09-15T23:48:05.139Z,12.10
2018-09-15T23:50:33.684Z,12.10
2018-09-15T23:53:02.435Z,12.10
2018-09-15T23:55:31.265Z,12.10
2018-09-15T23:58:00.244Z,12.10
